createdAt,value
2022-10-09T00:02:11.453Z,100516.79
2022-10-09T00:04:53.873Z,100520.02
2022-10-09T00:07:36.234Z,100523.46
2022-10-09T00:10:05.784Z,100522.92
2022-10-09T00:12:34.747Z,100523.73
2022-10-09T00:15:04.223Z,100526.92
2022-10-09T00:17:33.106Z,100529.75
2022-10-09T00:20:02.226Z,100528.02
2022-10-09T00:22:31.164Z,100530.85
2022-10-09T00:25:00.318Z,100527.73
2022-10-09T00:27:29.084Z,100526.56
2022-10-09T00:30:11.939Z,100527.04
2022-10-09T00:32:54.637Z,100530.33
2022-10-09T00:35:25.115Z,100539.38
2022-10-09T00:37:53.903Z,100537.00
2022-10-09T00:40:22.827Z,100537.36
2022-10-09T00:42:58.618Z,100533.00
2022-10-09T00:45:53.526Z,100539.00
2022-10-09T00:48:36.026Z,100538.06
2022-10-09T00:51:05.489Z,100539.24
2022-10-09T00:53:34.390Z,100538.52
2022-10-09T00:56:17.303Z,100544.37
2022-10-09T00:58:53.032Z,100546.21
2022-10-09T01:01:35.579Z,100549.96
2022-10-09T01:04:04.554Z,100548.27
2022-10-09T01:07:38.574Z,100550.18
2022-10-09T01:10:13.527Z,100550.92
2022-10-09T01:13:23.560Z,100551.45
2022-10-09T01:15:57.326Z,100552.34
2022-10-09T01:18:44.949Z,100551.04
2022-10-09T01:21:25.863Z,100550.80
2022-10-09T01:24:03.927Z,100554.11
2022-10-09T01:27:24.708Z,100550.02
2022-10-09T01:30:12.668Z,100556.20
2022-10-09T01:32:56.208Z,100560.44
2022-10-09T01:35:26.602Z,100565.17
2022-10-09T01:38:09.988Z,100572.42
2022-10-09T01:40:39.606Z,100582.28
2022-10-09T01:43:08.269Z,100590.00
2022-10-09T01:45:43.721Z,100591.67
2022-10-09T01:48:26.240Z,100597.23
2022-10-09T01:51:03.077Z,100595.21
2022-10-09T01:53:33.830Z,100597.35
2022-10-09T01:56:22.647Z,100600.10
2022-10-09T01:58:56.976Z,100596.55
2022-10-09T02:01:42.583Z,100603.67
2022-10-09T02:04:15.848Z,100607.80
2022-10-09T02:06:48.141Z,100609.70
2022-10-09T02:09:18.423Z,100617.35
2022-10-09T02:11:53.304Z,100617.85
2022-10-09T02:14:24.488Z,100622.06
2022-10-09T02:17:04.028Z,100625.13
2022-10-09T02:19:41.174Z,100621.32
2022-10-09T02:22:29.693Z,100631.03
2022-10-09T02:25:01.885Z,100638.77
2022-10-09T02:27:46.151Z,100637.60
2022-10-09T02:30:16.199Z,100640.42
2022-10-09T02:32:45.305Z,100647.77
2022-10-09T02:35:14.668Z,100647.77
2022-10-09T02:37:56.973Z,100654.41
2022-10-09T02:40:25.635Z,100653.55
2022-10-09T02:42:54.754Z,100663.90
2022-10-09T02:45:23.695Z,100664.79
2022-10-09T02:47:52.828Z,100663.51
2022-10-09T02:50:36.645Z,100672.67
2022-10-09T02:53:19.087Z,100665.58
2022-10-09T02:55:48.372Z,100670.84
2022-10-09T02:58:32.673Z,100668.69
2022-10-09T03:01:01.554Z,100674.34
2022-10-09T03:03:44.196Z,100682.41
2022-10-09T03:06:28.233Z,100681.56
2022-10-09T03:09:10.961Z,100683.56
2022-10-09T03:11:39.991Z,100691.93
2022-10-09T03:14:09.649Z,100696.02
2022-10-09T03:16:39.097Z,100700.42
2022-10-09T03:19:08.072Z,100697.76
2022-10-09T03:21:37.689Z,100698.52
2022-10-09T03:24:20.808Z,100699.38
2022-10-09T03:27:03.224Z,100703.07
2022-10-09T03:29:32.133Z,100701.52
2022-10-09T03:32:00.993Z,100708.80
2022-10-09T03:34:30.207Z,100709.59
2022-10-09T03:36:59.109Z,100710.13
2022-10-09T03:39:27.850Z,100712.24
2022-10-09T03:41:56.643Z,100717.27
2022-10-09T03:44:25.410Z,100719.35
2022-10-09T03:47:07.924Z,100715.81
2022-10-09T03:49:36.764Z,100721.08
2022-10-09T03:52:19.086Z,100726.16
2022-10-09T03:54:48.140Z,100732.38
2022-10-09T03:57:17.414Z,100730.23
2022-10-09T03:59:46.383Z,100731.20
2022-10-09T04:02:15.521Z,100734.95
2022-10-09T04:04:44.461Z,100735.03
2022-10-09T04:07:13.370Z,100743.58
2022-10-09T04:09:56.565Z,100740.74
2022-10-09T04:12:25.970Z,100743.86
2022-10-09T04:14:54.715Z,100746.49
2022-10-09T04:17:37.358Z,100744.52
2022-10-09T04:20:07.075Z,100748.00
2022-10-09T04:22:35.693Z,100752.39
2022-10-09T04:25:18.191Z,100758.43
2022-10-09T04:27:47.238Z,100762.52
2022-10-09T04:30:16.252Z,100765.88
2022-10-09T04:32:58.572Z,100767.85
2022-10-09T04:35:45.678Z,100771.58
2022-10-09T04:38:27.941Z,100772.24
2022-10-09T04:40:59.499Z,100775.47
2022-10-09T04:43:28.682Z,100778.52
2022-10-09T04:46:14.474Z,100781.88
2022-10-09T04:48:57.105Z,100781.50
2022-10-09T04:51:26.117Z,100783.84
2022-10-09T04:54:00.408Z,100784.99
2022-10-09T04:56:29.793Z,100789.23
2022-10-09T04:59:13.305Z,100794.70
2022-10-09T05:01:42.595Z,100796.11
2022-10-09T05:04:25.175Z,100796.13
2022-10-09T05:07:07.809Z,100797.48
2022-10-09T05:09:37.443Z,100805.31
2022-10-09T05:12:07.746Z,100807.94
2022-10-09T05:14:36.605Z,100814.72
2022-10-09T05:17:14.529Z,100816.39
2022-10-09T05:19:57.332Z,100821.19
2022-10-09T05:22:26.442Z,100828.85
2022-10-09T05:24:55.334Z,100830.17
2022-10-09T05:27:24.396Z,100829.78
2022-10-09T05:29:53.909Z,100839.13
2022-10-09T05:32:23.365Z,100845.22
2022-10-09T05:34:52.266Z,100851.31
2022-10-09T05:37:21.368Z,100850.46
2022-10-09T05:39:50.294Z,100852.55
2022-10-09T05:42:32.635Z,100854.48
2022-10-09T05:45:01.662Z,100854.91
2022-10-09T05:47:31.463Z,100859.02
2022-10-09T05:50:14.008Z,100868.38
2022-10-09T05:52:57.252Z,100875.02
2022-10-09T05:55:27.468Z,100881.66
2022-10-09T05:58:10.032Z,100879.31
2022-10-09T06:00:39.022Z,100883.55
2022-10-09T06:03:07.957Z,100890.19
2022-10-09T06:05:36.684Z,100896.52
2022-10-09T06:08:05.573Z,100897.41
2022-10-09T06:10:34.480Z,100903.08
2022-10-09T06:13:03.440Z,100907.85
2022-10-09T06:15:32.428Z,100911.27
2022-10-09T06:18:01.066Z,100921.31
2022-10-09T06:20:54.225Z,100925.23
2022-10-09T06:23:23.242Z,100930.19
2022-10-09T06:26:08.144Z,100934.67
2022-10-09T06:28:37.979Z,100930.52
2022-10-09T06:31:23.180Z,100934.59
2022-10-09T06:33:53.410Z,100934.66
2022-10-09T06:36:36.911Z,100937.83
2022-10-09T06:39:19.721Z,100941.21
2022-10-09T06:41:48.833Z,100948.37
2022-10-09T06:44:37.168Z,100955.84
2022-10-09T06:47:06.637Z,100960.33
2022-10-09T06:49:36.182Z,100957.67
2022-10-09T06:52:05.932Z,100959.08
2022-10-09T06:54:35.572Z,100962.60
2022-10-09T06:57:18.032Z,100963.13
2022-10-09T06:59:50.696Z,100969.54
2022-10-09T07:02:20.337Z,100971.21
2022-10-09T07:04:49.527Z,100975.17
2022-10-09T07:07:18.527Z,100978.02
2022-10-09T07:09:47.232Z,100985.45
2022-10-09T07:12:16.829Z,100983.98
2022-10-09T07:14:59.396Z,100991.90
2022-10-09T07:17:28.653Z,100993.53
2022-10-09T07:19:57.847Z,100991.13
2022-10-09T07:22:40.128Z,100999.29
2022-10-09T07:25:12.226Z,100999.71
2022-10-09T07:27:41.166Z,101004.08
2022-10-09T07:30:11.314Z,101008.48
2022-10-09T07:32:40.349Z,101011.20
2022-10-09T07:35:09.097Z,101016.05
2022-10-09T07:37:52.133Z,101014.52
2022-10-09T07:40:22.091Z,101017.52
2022-10-09T07:42:51.279Z,101020.65
2022-10-09T07:45:20.089Z,101014.89
2022-10-09T07:47:49.119Z,101017.56
2022-10-09T07:50:17.838Z,101021.95
2022-10-09T07:52:47.688Z,101021.48
2022-10-09T07:55:17.280Z,101025.11
2022-10-09T07:57:46.872Z,101028.17
2022-10-09T08:00:16.734Z,101026.27
2022-10-09T08:02:47.074Z,101029.48
2022-10-09T08:05:29.667Z,101031.08
2022-10-09T08:07:58.152Z,101033.24
2022-10-09T08:10:31.549Z,101031.63
2022-10-09T08:13:01.073Z,101038.05
2022-10-09T08:15:30.060Z,101041.09
2022-10-09T08:17:58.830Z,101045.23
2022-10-09T08:20:28.956Z,101047.02
2022-10-09T08:22:59.649Z,101048.23
2022-10-09T08:25:31.933Z,101051.45
2022-10-09T08:28:04.502Z,101051.99
2022-10-09T08:30:47.425Z,101052.15
2022-10-09T08:33:23.608Z,101050.61
2022-10-09T08:35:53.860Z,101053.15
2022-10-09T08:38:46.839Z,101062.29
2022-10-09T08:41:47.493Z,101062.77
2022-10-09T08:44:37.773Z,101059.31
2022-10-09T08:47:41.549Z,101076.16
2022-10-09T08:50:16.746Z,101071.59
2022-10-09T08:57:18.781Z,101082.27
2022-10-09T08:59:53.667Z,101081.23
2022-10-09T09:03:04.636Z,101084.42
2022-10-09T09:05:39.252Z,101089.63
2022-10-09T09:08:48.292Z,101098.61
2022-10-09T09:11:48.168Z,101093.80
2022-10-09T09:14:42.511Z,101092.18
2022-10-09T09:17:57.873Z,101092.70
2022-10-09T09:20:34.929Z,101090.00
2022-10-09T09:23:05.794Z,101092.48
2022-10-09T09:25:40.339Z,101093.73
2022-10-09T09:28:31.884Z,101096.55
2022-10-09T09:31:17.684Z,101100.35
2022-10-09T09:34:02.628Z,101094.24
2022-10-09T09:36:56.255Z,101103.08
2022-10-09T09:42:21.954Z,101106.98
2022-10-09T09:45:11.439Z,101107.57
2022-10-09T09:47:45.783Z,101105.03
2022-10-09T09:50:35.006Z,101101.94
2022-10-09T09:53:38.038Z,101103.20
2022-10-09T09:56:07.854Z,101111.73
2022-10-09T09:58:53.411Z,101114.15
2022-10-09T10:01:30.840Z,101110.30
2022-10-09T10:04:02.831Z,101116.98
2022-10-09T10:06:32.867Z,101111.75
2022-10-09T10:09:14.047Z,101114.52
2022-10-09T10:12:04.277Z,101112.04
2022-10-09T10:14:34.690Z,101122.44
2022-10-09T10:17:03.582Z,101113.05
2022-10-09T10:19:35.750Z,101116.34
2022-10-09T10:22:07.502Z,101114.62
2022-10-09T10:24:44.854Z,101116.82
2022-10-09T10:27:22.938Z,101113.54
2022-10-09T10:29:58.593Z,101112.55
2022-10-09T10:32:37.848Z,101117.58
2022-10-09T10:35:30.616Z,101114.09
2022-10-09T10:38:06.746Z,101118.84
2022-10-09T10:40:42.587Z,101115.98
2022-10-09T10:43:11.242Z,101113.05
2022-10-09T10:46:17.814Z,101110.39
2022-10-09T10:48:49.912Z,101113.02
2022-10-09T10:51:51.624Z,101115.45
2022-10-09T10:54:39.399Z,101116.71
2022-10-09T10:57:53.450Z,101122.55
2022-10-09T11:00:23.428Z,101126.01
2022-10-09T11:03:20.912Z,101133.44
2022-10-09T11:05:59.680Z,101130.11
2022-10-09T11:08:31.429Z,101131.11
2022-10-09T11:11:23.221Z,101129.36
2022-10-09T11:14:29.708Z,101127.25
2022-10-09T11:17:19.052Z,101134.64
2022-10-09T11:20:12.832Z,101132.51
2022-10-09T11:23:33.144Z,101129.98
2022-10-09T11:26:04.945Z,101129.91
2022-10-09T11:28:43.760Z,101131.02
2022-10-09T11:31:36.101Z,101125.77
2022-10-09T11:34:12.827Z,101132.57
2022-10-09T11:36:43.713Z,101132.55
2022-10-09T11:39:19.929Z,101131.59
2022-10-09T11:42:03.236Z,101131.29
2022-10-09T11:44:32.086Z,101128.12
2022-10-09T11:47:42.301Z,101126.83
2022-10-09T11:50:43.101Z,101132.39
2022-10-09T11:53:28.941Z,101131.14
2022-10-09T11:56:24.107Z,101122.75
2022-10-09T11:59:07.964Z,101127.59
2022-10-09T12:01:45.097Z,101125.83
2022-10-09T12:04:13.711Z,101126.89
2022-10-09T12:07:00.033Z,101123.13
2022-10-09T12:09:47.670Z,101131.62
2022-10-09T12:12:30.846Z,101130.95
2022-10-09T12:15:13.047Z,101132.85
2022-10-09T12:17:55.482Z,101129.35
2022-10-09T12:20:26.640Z,101123.21
2022-10-09T12:23:25.742Z,101125.14
2022-10-09T12:26:06.091Z,101129.39
2022-10-09T12:28:49.194Z,101123.52
2022-10-09T12:31:24.338Z,101117.90
2022-10-09T12:34:14.767Z,101118.16
2022-10-09T12:37:19.079Z,101115.88
2022-10-09T12:39:49.905Z,101109.86
2022-10-09T12:42:25.273Z,101104.61
2022-10-09T12:44:56.158Z,101105.55
2022-10-09T12:47:38.501Z,101110.65
2022-10-09T12:50:27.515Z,101110.95
2022-10-09T12:53:00.297Z,101105.80
2022-10-09T12:55:35.425Z,101110.88
2022-10-09T12:58:15.300Z,101107.30
2022-10-09T13:00:50.471Z,101110.17
2022-10-09T13:03:37.287Z,101112.98
2022-10-09T13:06:35.054Z,101115.10
2022-10-09T13:09:18.108Z,101124.34
2022-10-09T13:12:07.869Z,101122.14
2022-10-09T13:14:43.363Z,101124.52
2022-10-09T13:20:00.791Z,101123.31
2022-10-09T13:22:35.220Z,101128.23
2022-10-09T13:25:18.958Z,101122.41
2022-10-09T13:27:48.157Z,101115.52
2022-10-09T13:30:31.682Z,101118.40
2022-10-09T13:33:00.731Z,101120.21
2022-10-09T13:35:30.242Z,101120.33
2022-10-09T13:38:18.089Z,101118.80
2022-10-09T13:41:00.775Z,101111.45
2022-10-09T13:43:31.273Z,101106.64
2022-10-09T13:46:00.563Z,101112.95
2022-10-09T13:48:31.441Z,101114.77
2022-10-09T13:51:00.875Z,101111.88
2022-10-09T13:53:29.827Z,101118.70
2022-10-09T13:56:01.071Z,101118.48
2022-10-09T13:58:31.454Z,101126.19
2022-10-09T14:01:13.932Z,101123.68
2022-10-09T14:03:56.514Z,101127.59
2022-10-09T14:06:26.075Z,101123.84
2022-10-09T14:09:09.114Z,101122.48
2022-10-09T14:11:51.587Z,101124.80
2022-10-09T14:14:22.661Z,101120.91
2022-10-09T14:16:52.175Z,101119.48
2022-10-09T14:19:20.970Z,101125.02
2022-10-09T14:21:50.244Z,101124.92
2022-10-09T14:24:19.997Z,101118.77
2022-10-09T14:26:51.683Z,101123.87
2022-10-09T14:29:20.896Z,101122.51
2022-10-09T14:31:51.549Z,101121.57
2022-10-09T14:34:20.623Z,101118.43
2022-10-09T14:36:49.847Z,101120.51
2022-10-09T14:39:32.211Z,101118.93
2022-10-09T14:42:00.967Z,101121.61
2022-10-09T14:44:29.871Z,101124.31
2022-10-09T14:46:59.473Z,101125.95
2022-10-09T14:49:28.409Z,101127.88
2022-10-09T14:51:57.226Z,101130.99
2022-10-09T14:54:26.883Z,101126.49
2022-10-09T14:56:56.712Z,101125.05
2022-10-09T14:59:25.643Z,101130.40
2022-10-09T15:01:54.617Z,101131.58
2022-10-09T15:04:36.979Z,101132.88
2022-10-09T15:07:19.279Z,101132.95
2022-10-09T15:10:01.671Z,101134.29
2022-10-09T15:12:30.230Z,101133.70
2022-10-09T15:15:12.633Z,101129.45
2022-10-09T15:17:55.031Z,101126.39
2022-10-09T15:20:37.487Z,101132.46
2022-10-09T15:23:06.634Z,101131.58
2022-10-09T15:25:35.647Z,101135.59
2022-10-09T15:28:19.406Z,101133.63
2022-10-09T15:31:03.551Z,101131.21
2022-10-09T15:33:33.911Z,101131.80
2022-10-09T15:36:16.352Z,101131.69
2022-10-09T15:39:01.344Z,101128.19
2022-10-09T15:41:44.304Z,101133.40
2022-10-09T15:44:19.540Z,101138.27
2022-10-09T15:47:02.147Z,101141.73
2022-10-09T15:49:31.222Z,101144.10
2022-10-09T15:52:00.474Z,101144.60
2022-10-09T15:54:43.151Z,101144.23
2022-10-09T15:57:25.493Z,101146.84
2022-10-09T16:00:10.072Z,101151.52
2022-10-09T16:02:53.058Z,101148.77
2022-10-09T16:05:21.971Z,101151.09
2022-10-09T16:08:05.384Z,101154.64
2022-10-09T16:10:52.702Z,101162.15
2022-10-09T16:13:23.576Z,101163.53
2022-10-09T16:15:53.433Z,101161.75
2022-10-09T16:18:23.956Z,101166.45
2022-10-09T16:20:52.862Z,101171.45
2022-10-09T16:23:21.800Z,101174.30
2022-10-09T16:25:59.418Z,101172.77
2022-10-09T16:28:28.453Z,101172.02
2022-10-09T16:31:38.476Z,101175.90
2022-10-09T16:34:21.012Z,101184.94
2022-10-09T16:37:03.418Z,101187.73
2022-10-09T16:39:33.049Z,101188.35
2022-10-09T16:42:16.689Z,101187.81
2022-10-09T16:44:45.882Z,101188.41
2022-10-09T16:47:15.101Z,101188.53
2022-10-09T16:49:44.530Z,101188.27
2022-10-09T16:52:13.394Z,101192.52
2022-10-09T16:54:42.417Z,101198.98
2022-10-09T16:57:11.276Z,101197.98
2022-10-09T16:59:53.658Z,101201.54
2022-10-09T17:02:36.000Z,101201.11
2022-10-09T17:05:06.730Z,101203.64
2022-10-09T17:07:49.579Z,101206.73
2022-10-09T17:10:19.048Z,101211.02
2022-10-09T17:12:48.497Z,101210.38
2022-10-09T17:15:17.447Z,101207.60
2022-10-09T17:17:59.843Z,101210.05
2022-10-09T17:20:28.803Z,101214.39
2022-10-09T17:22:57.737Z,101218.69
2022-10-09T17:25:42.273Z,101221.27
2022-10-09T17:28:11.200Z,101222.53
2022-10-09T17:30:41.230Z,101227.61
2022-10-09T17:33:10.373Z,101225.11
2022-10-09T17:35:40.961Z,101228.02
2022-10-09T17:38:09.829Z,101228.91
2022-10-09T17:40:40.680Z,101231.23
2022-10-09T17:43:23.134Z,101230.87
2022-10-09T17:45:52.356Z,101232.29
2022-10-09T17:48:20.951Z,101232.20
2022-10-09T17:50:54.801Z,101229.27
2022-10-09T17:53:37.196Z,101234.32
2022-10-09T17:56:06.138Z,101238.09
2022-10-09T17:58:35.450Z,101239.65
2022-10-09T18:01:06.818Z,101237.27
2022-10-09T18:03:36.068Z,101239.10
2022-10-09T18:06:07.048Z,101235.19
2022-10-09T18:08:37.113Z,101241.25
2022-10-09T18:11:09.570Z,101239.60
2022-10-09T18:13:39.747Z,101241.80
2022-10-09T18:16:11.387Z,101242.73
2022-10-09T18:18:40.573Z,101244.30
2022-10-09T18:21:12.441Z,101242.17
2022-10-09T18:23:41.156Z,101243.48
2022-10-09T18:26:24.130Z,101243.77
2022-10-09T18:28:54.216Z,101237.70
2022-10-09T18:31:25.509Z,101239.48
2022-10-09T18:33:54.798Z,101240.16
2022-10-09T18:36:37.829Z,101243.38
2022-10-09T18:39:14.563Z,101245.17
2022-10-09T18:41:43.869Z,101244.73
2022-10-09T18:44:17.928Z,101245.02
2022-10-09T18:46:57.414Z,101245.21
2022-10-09T18:49:30.614Z,101250.34
2022-10-09T18:52:02.428Z,101252.08
2022-10-09T18:54:49.057Z,101252.96
2022-10-09T18:57:18.734Z,101256.98
2022-10-09T19:00:02.432Z,101254.13
2022-10-09T19:02:31.370Z,101252.35
2022-10-09T19:05:00.441Z,101252.55
2022-10-09T19:07:29.773Z,101248.85
2022-10-09T19:09:59.061Z,101252.41
2022-10-09T19:12:28.068Z,101255.45
2022-10-09T19:14:58.880Z,101256.10
2022-10-09T19:17:29.637Z,101258.71
2022-10-09T19:19:58.706Z,101264.95
2022-10-09T19:22:41.210Z,101264.03
2022-10-09T19:25:10.057Z,101265.55
2022-10-09T19:27:52.746Z,101267.95
2022-10-09T19:30:21.787Z,101267.94
2022-10-09T19:32:52.028Z,101265.60
2022-10-09T19:35:35.196Z,101267.88
2022-10-09T19:38:18.135Z,101269.55
2022-10-09T19:40:48.559Z,101269.70
2022-10-09T19:43:19.849Z,101267.23
2022-10-09T19:45:50.123Z,101270.00
2022-10-09T19:48:20.551Z,101268.96
2022-10-09T19:51:12.354Z,101266.80
2022-10-09T19:53:55.117Z,101266.35
2022-10-09T19:56:38.605Z,101263.44
2022-10-09T19:59:09.634Z,101267.77
2022-10-09T20:01:40.629Z,101265.00
2022-10-09T20:04:11.389Z,101262.61
2022-10-09T20:06:43.039Z,101261.82
2022-10-09T20:09:25.525Z,101261.52
2022-10-09T20:11:54.155Z,101265.41
2022-10-09T20:14:23.174Z,101270.41
2022-10-09T20:17:05.461Z,101265.98
2022-10-09T20:19:34.660Z,101266.56
2022-10-09T20:22:16.938Z,101267.02
2022-10-09T20:24:45.835Z,101269.15
2022-10-09T20:27:14.477Z,101269.25
2022-10-09T20:29:43.625Z,101273.87
2022-10-09T20:32:25.960Z,101276.42
2022-10-09T20:34:55.242Z,101273.49
2022-10-09T20:37:24.212Z,101273.14
2022-10-09T20:40:07.125Z,101273.55
2022-10-09T20:42:36.010Z,101274.33
2022-10-09T20:45:04.895Z,101274.89
2022-10-09T20:47:47.920Z,101276.13
2022-10-09T20:50:30.870Z,101274.44
2022-10-09T20:52:59.695Z,101273.09
2022-10-09T20:55:29.421Z,101276.10
2022-10-09T20:57:58.586Z,101279.12
2022-10-09T21:00:28.373Z,101279.00
2022-10-09T21:02:57.387Z,101277.89
2022-10-09T21:05:26.629Z,101274.50
2022-10-09T21:07:55.274Z,101278.95
2022-10-09T21:10:46.278Z,101281.48
2022-10-09T21:13:28.713Z,101280.90
2022-10-09T21:15:57.902Z,101278.56
2022-10-09T21:18:27.116Z,101274.45
2022-10-09T21:20:56.116Z,101277.33
2022-10-09T21:23:24.947Z,101280.02
2022-10-09T21:25:54.203Z,101276.41
2022-10-09T21:28:23.662Z,101277.48
2022-10-09T21:30:52.710Z,101276.52
2022-10-09T21:33:34.956Z,101279.54
2022-10-09T21:36:10.719Z,101275.57
2022-10-09T21:38:53.563Z,101280.73
2022-10-09T21:41:23.244Z,101282.60
2022-10-09T21:44:07.388Z,101283.58
2022-10-09T21:46:38.423Z,101284.18
2022-10-09T21:49:23.850Z,101282.33
2022-10-09T21:51:53.066Z,101282.20
2022-10-09T21:54:23.473Z,101279.41
2022-10-09T21:57:06.266Z,101281.23
2022-10-09T21:59:34.914Z,101283.48
2022-10-09T22:02:04.600Z,101281.78
2022-10-09T22:04:33.692Z,101287.63
2022-10-09T22:07:16.079Z,101283.58
2022-10-09T22:09:45.222Z,101285.62
2022-10-09T22:12:14.267Z,101284.88
2022-10-09T22:14:43.265Z,101284.14
2022-10-09T22:17:12.767Z,101278.42
2022-10-09T22:19:41.688Z,101279.98
2022-10-09T22:22:10.789Z,101279.60
2022-10-09T22:24:39.784Z,101280.67
2022-10-09T22:27:22.674Z,101279.48
2022-10-09T22:30:05.714Z,101273.84
2022-10-09T22:32:34.724Z,101275.50
2022-10-09T22:35:17.211Z,101276.65
2022-10-09T22:37:46.368Z,101277.09
2022-10-09T22:40:15.529Z,101279.46
2022-10-09T22:42:58.113Z,101277.11
2022-10-09T22:45:27.411Z,101280.67
2022-10-09T22:47:56.646Z,101284.37
2022-10-09T22:50:25.702Z,101285.96
2022-10-09T22:52:54.844Z,101285.03
2022-10-09T22:55:41.156Z,101283.73
2022-10-09T22:58:23.631Z,101280.30
2022-10-09T23:00:53.163Z,101280.89
2022-10-09T23:03:35.689Z,101279.38
2022-10-09T23:06:20.503Z,101276.45
2022-10-09T23:08:49.845Z,101280.23
2022-10-09T23:11:21.183Z,101275.64
2022-10-09T23:14:05.672Z,101279.94
2022-10-09T23:16:48.295Z,101274.45
2022-10-09T23:19:17.725Z,101274.64
2022-10-09T23:21:47.427Z,101274.82
2022-10-09T23:24:29.808Z,101276.46
2022-10-09T23:27:12.393Z,101278.05
2022-10-09T23:29:41.260Z,101276.79
2022-10-09T23:32:23.641Z,101278.45
2022-10-09T23:34:52.725Z,101282.05
2022-10-09T23:37:21.448Z,101287.58
2022-10-09T23:40:04.680Z,101288.04
2022-10-09T23:42:33.588Z,101292.13
2022-10-09T23:45:02.638Z,101290.11
2022-10-09T23:47:31.288Z,101295.05
2022-10-09T23:50:00.769Z,101295.97
2022-10-09T23:52:29.703Z,101292.02
2022-10-09T23:54:58.472Z,101291.71
2022-10-09T23:57:41.466Z,101291.89
